createdAt,value
2017-02-23T00:00:03.462Z,5
2017-02-23T00:05:03.419Z,4
2017-02-23T00:10:10.322Z,7
2017-02-23T00:15:03.221Z,6
2017-02-23T00:20:02.899Z,6
2017-02-23T00:25:03.626Z,7
2017-02-23T00:30:03.396Z,6
2017-02-23T00:35:03.138Z,6
2017-02-23T00:40:03.119Z,3
2017-02-23T00:45:03.170Z,5
2017-02-23T00:50:03.196Z,5
2017-02-23T00:55:03.031Z,4
2017-02-23T01:00:03.070Z,2
2017-02-23T01:05:02.975Z,4
2017-02-23T01:10:03.036Z,3
2017-02-23T01:15:02.768Z,4
2017-02-23T01:20:02.756Z,3
2017-02-23T01:25:02.890Z,4
2017-02-23T01:30:02.738Z,5
2017-02-23T01:35:02.712Z,4
2017-02-23T01:40:02.856Z,5
2017-02-23T01:45:02.681Z,3
2017-02-23T01:50:02.825Z,4
2017-02-23T01:55:02.655Z,3
2017-02-23T02:00:03.545Z,6
2017-02-23T02:05:03.450Z,5
2017-02-23T02:10:03.256Z,4
2017-02-23T02:15:03.259Z,3
2017-02-23T02:20:03.195Z,3
2017-02-23T02:25:03.190Z,2
2017-02-23T02:30:03.076Z,4
2017-02-23T02:35:02.850Z,1
2017-02-23T02:40:02.783Z,0
2017-02-23T02:45:02.640Z,3
2017-02-23T02:50:03.302Z,9
2017-02-23T02:55:03.296Z,2
2017-02-23T03:00:03.379Z,0
2017-02-23T03:05:03.371Z,0
2017-02-23T03:10:03.392Z,2
2017-02-23T03:15:03.044Z,3
2017-02-23T03:20:02.928Z,0
2017-02-23T03:25:02.824Z,2
2017-02-23T03:30:03.553Z,3
2017-02-23T03:35:03.257Z,3
2017-02-23T03:40:03.242Z,2
2017-02-23T03:45:03.149Z,3
2017-02-23T03:50:03.151Z,4
2017-02-23T03:55:03.000Z,4
2017-02-23T04:00:03.015Z,5
2017-02-23T04:05:02.980Z,3
2017-02-23T04:10:02.975Z,4
2017-02-23T04:15:02.687Z,6
2017-02-23T04:20:02.696Z,6
2017-02-23T04:25:03.435Z,4
2017-02-23T04:30:03.472Z,8
2017-02-23T04:35:03.448Z,7
2017-02-23T04:40:03.438Z,6
2017-02-23T04:45:03.236Z,8
2017-02-23T04:50:03.232Z,6
2017-02-23T04:55:03.234Z,9
2017-02-23T05:00:03.237Z,9
2017-02-23T05:05:03.016Z,13
2017-02-23T05:10:02.920Z,6
2017-02-23T05:15:02.980Z,5
2017-02-23T05:20:02.939Z,9
2017-02-23T05:25:02.817Z,8
2017-02-23T05:30:04.954Z,5
2017-02-23T05:35:02.921Z,7
2017-02-23T05:40:03.014Z,10
2017-02-23T05:45:02.998Z,7
2017-02-23T05:50:02.868Z,11
2017-02-23T05:55:03.573Z,9
2017-02-23T06:00:03.451Z,13
2017-02-23T06:05:03.151Z,9
2017-02-23T06:10:03.163Z,9
2017-02-23T06:15:02.990Z,7
2017-02-23T06:20:02.755Z,6
2017-02-23T06:25:03.568Z,7
2017-02-23T06:30:03.598Z,10
2017-02-23T06:35:03.537Z,10
2017-02-23T06:40:03.444Z,9
2017-02-23T06:45:03.170Z,14
2017-02-23T06:50:02.983Z,10
2017-02-23T06:55:02.942Z,9
2017-02-23T07:00:02.882Z,8
2017-02-23T07:05:02.716Z,11
2017-02-23T07:10:03.532Z,6
2017-02-23T07:15:03.279Z,8
2017-02-23T07:20:03.133Z,8
2017-02-23T07:25:02.912Z,11
2017-02-23T07:30:02.820Z,15
2017-02-23T07:35:03.596Z,12
2017-02-23T07:40:03.443Z,12
2017-02-23T07:45:03.195Z,11
2017-02-23T07:50:03.165Z,10
2017-02-23T07:55:03.189Z,8
2017-02-23T08:00:03.178Z,14
2017-02-23T08:05:03.209Z,9
2017-02-23T08:10:03.263Z,6
2017-02-23T08:15:02.981Z,9
2017-02-23T08:20:03.142Z,7
2017-02-23T08:25:03.430Z,13
2017-02-23T08:30:03.422Z,8
2017-02-23T08:35:03.190Z,10
2017-02-23T08:40:03.165Z,12
2017-02-23T08:45:03.017Z,10
2017-02-23T08:50:03.041Z,8
2017-02-23T08:55:02.929Z,11
2017-02-23T09:00:03.042Z,8
2017-02-23T09:05:03.120Z,9
2017-02-23T09:10:03.274Z,13
2017-02-23T09:15:03.263Z,12
2017-02-23T09:20:03.239Z,9
2017-02-23T09:25:03.213Z,8
2017-02-23T09:30:03.264Z,11
2017-02-23T09:35:03.334Z,9
2017-02-23T09:40:03.188Z,10
2017-02-23T09:45:03.051Z,12
2017-02-23T09:50:03.146Z,11
2017-02-23T09:55:03.214Z,12
2017-02-23T10:00:02.880Z,10
2017-02-23T10:05:03.628Z,7
2017-02-23T10:10:02.653Z,8
2017-02-23T10:15:03.535Z,13
2017-02-23T10:20:02.640Z,12
2017-02-23T10:25:03.455Z,10
2017-02-23T10:30:03.250Z,11
2017-02-23T10:35:02.999Z,12
2017-02-23T10:40:02.845Z,13
2017-02-23T10:45:02.676Z,10
2017-02-23T10:50:02.776Z,10
2017-02-23T10:55:03.435Z,15
2017-02-23T11:00:03.387Z,6
2017-02-23T11:05:03.499Z,14
2017-02-23T11:10:03.384Z,11
2017-02-23T11:15:03.124Z,12
2017-02-23T11:20:03.043Z,12
2017-02-23T11:25:03.022Z,9
2017-02-23T11:30:03.036Z,14
2017-02-23T11:35:02.994Z,12
2017-02-23T11:40:03.329Z,18
2017-02-23T11:45:03.578Z,12
2017-02-23T11:50:03.590Z,14
2017-02-23T11:55:03.222Z,8
2017-02-23T12:00:03.060Z,14
2017-02-23T12:05:02.984Z,11
2017-02-23T12:10:02.910Z,16
2017-02-23T12:15:02.988Z,18
2017-02-23T12:20:02.824Z,14
2017-02-23T12:25:02.815Z,8
2017-02-23T12:30:02.909Z,16
2017-02-23T12:35:03.164Z,10
2017-02-23T12:40:02.753Z,14
2017-02-23T12:45:03.555Z,11
2017-02-23T12:50:03.372Z,14
2017-02-23T12:55:03.225Z,17
2017-02-23T13:00:03.293Z,15
2017-02-23T13:05:03.382Z,17
2017-02-23T13:10:03.334Z,16
2017-02-23T13:15:03.444Z,15
2017-02-23T13:20:03.302Z,19
2017-02-23T13:25:03.090Z,13
2017-02-23T13:30:02.870Z,8
2017-02-23T13:35:02.807Z,12
2017-02-23T13:40:03.549Z,15
2017-02-23T13:45:02.717Z,11
2017-02-23T13:50:02.641Z,14
2017-02-23T13:55:03.538Z,10
2017-02-23T14:00:03.499Z,10
2017-02-23T14:05:03.571Z,13
2017-02-23T14:10:02.998Z,15
2017-02-23T14:15:02.813Z,12
2017-02-23T14:20:02.740Z,10
2017-02-23T14:25:03.568Z,10
2017-02-23T14:30:03.652Z,9
2017-02-23T14:35:03.460Z,11
2017-02-23T14:40:03.471Z,12
2017-02-23T14:45:03.396Z,13
2017-02-23T14:50:03.319Z,18
2017-02-23T14:55:02.768Z,12
2017-02-23T15:00:02.636Z,16
2017-02-23T15:05:03.500Z,13
2017-02-23T15:10:03.442Z,14
2017-02-23T15:15:03.352Z,15
2017-02-23T15:20:03.411Z,15
2017-02-23T15:25:03.332Z,15
2017-02-23T15:30:03.119Z,8
2017-02-23T15:35:03.240Z,13
2017-02-23T15:40:03.358Z,10
2017-02-23T15:45:03.208Z,16
2017-02-23T15:50:03.016Z,13
2017-02-23T15:55:03.121Z,12
2017-02-23T16:00:03.167Z,17
2017-02-23T16:05:02.952Z,10
2017-02-23T16:10:02.764Z,13
2017-02-23T16:15:03.515Z,8
2017-02-23T16:20:02.625Z,18
2017-02-23T16:25:02.806Z,12
2017-02-23T16:30:03.609Z,10
2017-02-23T16:35:03.368Z,14
2017-02-23T16:40:02.676Z,11
2017-02-23T16:45:02.630Z,10
2017-02-23T16:50:03.676Z,15
2017-02-23T16:55:02.766Z,14
2017-02-23T17:00:03.604Z,15
2017-02-23T17:05:02.646Z,11
2017-02-23T17:10:02.815Z,14
2017-02-23T17:15:02.841Z,10
2017-02-23T17:20:02.710Z,9
2017-02-23T17:25:02.775Z,15
2017-02-23T17:30:02.793Z,8
2017-02-23T17:35:03.593Z,13
2017-02-23T17:40:02.746Z,12
2017-02-23T17:45:02.839Z,17
2017-02-23T17:50:02.663Z,10
2017-02-23T17:55:03.576Z,14
2017-02-23T18:00:02.697Z,19
2017-02-23T18:05:02.654Z,17
2017-02-23T18:10:03.394Z,23
2017-02-23T18:15:03.326Z,18
2017-02-23T18:20:03.262Z,17
2017-02-23T18:25:02.993Z,15
2017-02-23T18:30:03.123Z,17
2017-02-23T18:35:03.379Z,12
2017-02-23T18:40:03.288Z,19
2017-02-23T18:45:03.139Z,19
2017-02-23T18:50:03.244Z,20
2017-02-23T18:55:02.940Z,15
2017-02-23T19:00:02.749Z,15
2017-02-23T19:05:03.506Z,16
2017-02-23T19:10:03.555Z,14
2017-02-23T19:15:03.329Z,15
2017-02-23T19:20:03.219Z,18
2017-02-23T19:25:03.031Z,18
2017-02-23T19:30:03.003Z,21
2017-02-23T19:35:02.895Z,19
2017-02-23T19:40:02.753Z,21
2017-02-23T19:45:02.752Z,14
2017-02-23T19:50:03.560Z,13
2017-02-23T19:55:03.490Z,15
2017-02-23T20:00:03.595Z,15
2017-02-23T20:05:03.300Z,13
2017-02-23T20:10:03.165Z,12
2017-02-23T20:15:03.169Z,11
2017-02-23T20:20:03.254Z,15
2017-02-23T20:25:03.082Z,15
2017-02-23T20:30:02.860Z,9
2017-02-23T20:35:02.849Z,9
2017-02-23T20:40:02.632Z,14
2017-02-23T20:45:03.383Z,18
2017-02-23T20:50:03.086Z,14
2017-02-23T20:55:02.741Z,18
2017-02-23T21:00:03.535Z,20
2017-02-23T21:05:03.422Z,10
2017-02-23T21:10:03.508Z,9
2017-02-23T21:15:02.624Z,17
2017-02-23T21:20:03.503Z,11
2017-02-23T21:25:03.343Z,16
2017-02-23T21:30:03.146Z,18
2017-02-23T21:35:03.253Z,18
2017-02-23T21:40:03.337Z,16
2017-02-23T21:45:03.198Z,19
2017-02-23T21:50:02.919Z,16
2017-02-23T21:55:02.714Z,19
2017-02-23T22:00:03.713Z,15
2017-02-23T22:05:02.709Z,10
2017-02-23T22:10:02.759Z,10
2017-02-23T22:15:02.850Z,15
2017-02-23T22:20:03.155Z,14
2017-02-23T22:25:02.904Z,17
2017-02-23T22:30:03.194Z,16
2017-02-23T22:35:03.449Z,16
2017-02-23T22:40:03.211Z,12
2017-02-23T22:45:02.889Z,18
2017-02-23T22:50:02.753Z,19
2017-02-23T22:55:03.526Z,19
2017-02-23T23:00:03.316Z,17
2017-02-23T23:05:03.170Z,17
2017-02-23T23:10:03.025Z,23
2017-02-23T23:15:03.129Z,12
2017-02-23T23:20:03.002Z,16
2017-02-23T23:25:02.999Z,15
2017-02-23T23:30:02.759Z,16
2017-02-23T23:35:02.769Z,8
2017-02-23T23:40:02.655Z,10
2017-02-23T23:45:02.775Z,8
2017-02-23T23:50:03.598Z,10
2017-02-23T23:55:02.627Z,10
